Time;durP1;ratioP1;P1;durP2;ratioP2;P2;SDS_P1;SDS_P2;PMS_P1;PMS_P2;Temp;Humidity;BMP_temperature;BMP_pressure;BME280_temperature;BME280_humidity;BME280_pressure;Samples;Min_cycle;Max_cycle;Signal;HPM_P1;HPM_P2
2022/05/13 00:00:43;;;;;;;2.67;2.58;;;;;;;;;;6552672;22;20002;-64
2022/05/13 00:03:13;;;;;;;4.60;2.70;;;;;;;;;;6495485;22;20021;-64
2022/05/13 00:05:43;;;;;;;2.90;2.28;;;;;;;;;;6495419;22;20010;-64
2022/05/13 00:08:13;;;;;;;3.40;3.15;;;;;;;;;;6523283;22;19991;-64
2022/05/13 00:10:44;;;;;;;7.07;3.20;;;;;;;;;;6496129;22;20010;-64
2022/05/13 00:13:14;;;;;;;5.47;3.08;;;;;;;;;;6495801;22;20003;-64
2022/05/13 00:15:46;;;;;;;3.15;3.03;;;;;;;;;;6495464;22;19999;-64
2022/05/13 00:18:17;;;;;;;3.00;2.45;;;;;;;;;;6496494;22;20278;-64
2022/05/13 00:20:47;;;;;;;7.70;3.30;;;;;;;;;;6495342;22;20345;-63
2022/05/13 00:23:18;;;;;;;9.70;3.08;;;;;;;;;;6495567;22;20025;-64
2022/05/13 00:25:48;;;;;;;3.00;2.90;;;;;;;;;;6495521;22;20023;-64
2022/05/13 00:28:19;;;;;;;4.15;3.40;;;;;;;;;;6495935;22;19999;-64
2022/05/13 00:30:49;;;;;;;2.97;2.78;;;;;;;;;;6495680;22;19999;-64
2022/05/13 00:33:20;;;;;;;2.88;2.78;;;;;;;;;;6495729;22;20003;-64
2022/05/13 00:35:50;;;;;;;3.35;2.83;;;;;;;;;;6495073;22;20004;-63
2022/05/13 00:38:20;;;;;;;2.60;2.40;;;;;;;;;;6495663;22;20007;-64
2022/05/13 00:40:51;;;;;;;4.38;2.55;;;;;;;;;;6495509;22;20031;-64
2022/05/13 00:43:38;;;;;;;3.47;2.25;;;;;;;;;;6495115;22;19999;-64
2022/05/13 00:46:08;;;;;;;3.67;3.47;;;;;;;;;;6522671;22;19991;-65
2022/05/13 00:48:39;;;;;;;3.33;3.13;;;;;;;;;;6495549;22;20333;-63
2022/05/13 00:51:10;;;;;;;7.57;4.45;;;;;;;;;;6495572;22;19999;-63
2022/05/13 00:53:40;;;;;;;3.53;3.33;;;;;;;;;;6522662;22;20333;-64
2022/05/13 00:56:11;;;;;;;9.85;4.95;;;;;;;;;;6495542;22;20003;-64
2022/05/13 00:58:43;;;;;;;10.02;4.57;;;;;;;;;;6495413;22;20318;-63
2022/05/13 01:01:14;;;;;;;3.85;3.63;;;;;;;;;;6504345;22;19999;-62
2022/05/13 01:03:44;;;;;;;5.95;3.58;;;;;;;;;;6553159;22;20502;-64
2022/05/13 01:06:15;;;;;;;5.85;4.32;;;;;;;;;;6553569;22;19995;-62
2022/05/13 01:08:47;;;;;;;6.90;4.38;;;;;;;;;;6553690;22;20318;-62
2022/05/13 01:11:19;;;;;;;4.28;3.88;;;;;;;;;;6553444;22;20425;-63
2022/05/13 01:13:52;;;;;;;3.97;3.75;;;;;;;;;;6553020;22;19998;-63
2022/05/13 01:16:22;;;;;;;4.00;3.70;;;;;;;;;;6553608;22;20437;-62
2022/05/13 01:18:53;;;;;;;8.65;4.35;;;;;;;;;;6553526;22;20009;-63
2022/05/13 01:21:29;;;;;;;5.47;4.97;;;;;;;;;;6553989;22;20306;-67
2022/05/13 01:24:03;;;;;;;6.35;4.57;;;;;;;;;;6552849;22;19995;-62
2022/05/13 01:26:35;;;;;;;7.65;3.90;;;;;;;;;;6553293;22;20006;-63
2022/05/13 01:29:05;;;;;;;7.82;4.05;;;;;;;;;;6553581;22;20022;-65
2022/05/13 01:31:37;;;;;;;3.58;3.35;;;;;;;;;;6553332;22;19995;-63
2022/05/13 01:34:09;;;;;;;7.53;3.75;;;;;;;;;;6555245;22;20003;-63
2022/05/13 01:36:40;;;;;;;12.63;4.70;;;;;;;;;;6555806;22;20006;-63
2022/05/13 01:39:10;;;;;;;6.55;3.30;;;;;;;;;;6557101;22;20023;-62
2022/05/13 01:41:41;;;;;;;7.95;3.92;;;;;;;;;;6555520;22;20286;-63
2022/05/13 01:44:11;;;;;;;8.00;3.85;;;;;;;;;;6555000;22;19995;-62
2022/05/13 01:46:41;;;;;;;4.05;3.63;;;;;;;;;;6556824;22;20021;-62
2022/05/13 01:49:12;;;;;;;6.68;3.47;;;;;;;;;;6555672;22;20413;-62
2022/05/13 01:51:42;;;;;;;11.55;4.00;;;;;;;;;;6556745;22;19999;-62
2022/05/13 01:54:12;;;;;;;4.72;3.28;;;;;;;;;;6555169;22;20006;-63
2022/05/13 01:56:43;;;;;;;7.22;3.97;;;;;;;;;;6555151;22;19999;-63
2022/05/13 01:59:13;;;;;;;4.97;3.75;;;;;;;;;;6555194;22;19991;-63
2022/05/13 02:01:43;;;;;;;5.07;3.60;;;;;;;;;;6554920;22;20003;-63
2022/05/13 02:04:13;;;;;;;5.88;4.15;;;;;;;;;;6554451;22;20008;-63
2022/05/13 02:06:44;;;;;;;3.38;3.03;;;;;;;;;;6555366;22;20026;-63
2022/05/13 02:09:14;;;;;;;4.30;2.88;;;;;;;;;;6555142;22;19991;-63
2022/05/13 02:11:46;;;;;;;4.50;4.20;;;;;;;;;;6554374;22;20429;-63
2022/05/13 02:14:17;;;;;;;7.18;3.67;;;;;;;;;;6554503;22;20029;-63
2022/05/13 02:16:47;;;;;;;3.63;3.42;;;;;;;;;;6554953;22;19999;-63
2022/05/13 02:19:17;;;;;;;10.35;4.95;;;;;;;;;;6554591;22;19999;-63
2022/05/13 02:21:48;;;;;;;4.88;4.40;;;;;;;;;;6554743;22;19999;-62
2022/05/13 02:24:18;;;;;;;7.40;4.97;;;;;;;;;;6554735;22;19991;-62
2022/05/13 02:26:49;;;;;;;4.07;3.75;;;;;;;;;;6556907;22;19998;-63
2022/05/13 02:29:19;;;;;;;5.00;4.63;;;;;;;;;;6555362;22;20374;-64
2022/05/13 02:31:50;;;;;;;9.88;4.13;;;;;;;;;;6555555;22;19999;-63
2022/05/13 02:34:20;;;;;;;3.60;3.40;;;;;;;;;;6555447;22;19995;-62
2022/05/13 02:36:50;;;;;;;4.57;3.70;;;;;;;;;;6555551;22;20091;-65
2022/05/13 02:39:20;;;;;;;4.50;3.33;;;;;;;;;;6555069;22;20085;-62
2022/05/13 02:41:51;;;;;;;6.95;4.93;;;;;;;;;;6555152;22;20021;-63
2022/05/13 02:44:22;;;;;;;4.57;4.05;;;;;;;;;;6554471;22;20002;-63
2022/05/13 02:46:52;;;;;;;5.35;4.72;;;;;;;;;;6555034;22;19999;-61
2022/05/13 02:49:23;;;;;;;4.53;4.03;;;;;;;;;;6554249;22;20027;-63
2022/05/13 02:51:54;;;;;;;7.93;3.55;;;;;;;;;;6555624;22;19995;-63
2022/05/13 02:54:24;;;;;;;11.23;5.72;;;;;;;;;;6553999;22;19995;-63
2022/05/13 02:56:57;;;;;;;8.13;4.15;;;;;;;;;;6553228;22;20018;-64
2022/05/13 02:59:28;;;;;;;10.35;4.90;;;;;;;;;;6554522;22;20627;-62
2022/05/13 03:01:58;;;;;;;11.77;5.13;;;;;;;;;;6554293;22;19998;-62
2022/05/13 03:04:28;;;;;;;9.68;4.25;;;;;;;;;;6554204;22;20002;-62
2022/05/13 03:06:58;;;;;;;8.85;4.18;;;;;;;;;;6554502;22;19999;-61
2022/05/13 03:09:30;;;;;;;11.25;4.50;;;;;;;;;;6556195;22;20018;-62
2022/05/13 03:12:00;;;;;;;6.65;4.50;;;;;;;;;;6554328;22;20067;-63
2022/05/13 03:14:30;;;;;;;8.48;5.80;;;;;;;;;;6554060;22;20007;-61
2022/05/13 03:17:03;;;;;;;3.28;3.03;;;;;;;;;;6554574;22;20007;-62
2022/05/13 03:19:37;;;;;;;8.55;4.25;;;;;;;;;;6554432;22;19999;-62
2022/05/13 03:22:07;;;;;;;4.22;3.85;;;;;;;;;;6555212;22;19995;-62
2022/05/13 03:24:37;;;;;;;7.50;3.78;;;;;;;;;;6554079;22;20025;-62
2022/05/13 03:27:08;;;;;;;16.00;5.25;;;;;;;;;;6554463;22;19998;-63
2022/05/13 03:29:38;;;;;;;8.43;4.75;;;;;;;;;;6554529;22;20336;-62
2022/05/13 03:32:08;;;;;;;5.60;5.15;;;;;;;;;;6554238;22;19999;-62
2022/05/13 03:34:39;;;;;;;3.95;3.72;;;;;;;;;;6553871;22;20079;-62
2022/05/13 03:37:09;;;;;;;9.93;4.70;;;;;;;;;;6554158;22;20056;-62
2022/05/13 03:39:40;;;;;;;7.03;4.07;;;;;;;;;;6554433;22;19999;-62
2022/05/13 03:42:10;;;;;;;6.25;3.75;;;;;;;;;;6555983;22;19995;-62
2022/05/13 03:44:41;;;;;;;8.05;4.35;;;;;;;;;;6554123;22;20002;-62
2022/05/13 03:47:11;;;;;;;5.40;5.00;;;;;;;;;;6553912;22;20104;-62
2022/05/13 03:49:42;;;;;;;9.38;4.47;;;;;;;;;;6555758;22;20447;-62
2022/05/13 03:52:13;;;;;;;5.88;3.85;;;;;;;;;;6553878;22;19998;-62
2022/05/13 03:54:43;;;;;;;5.05;3.95;;;;;;;;;;6553756;22;19999;-63
2022/05/13 03:57:13;;;;;;;5.32;3.72;;;;;;;;;;6554366;22;19998;-62
2022/05/13 03:59:43;;;;;;;3.80;3.50;;;;;;;;;;6553608;22;20085;-63
2022/05/13 04:02:14;;;;;;;7.07;4.80;;;;;;;;;;6534806;22;20009;-62
2022/05/13 04:10:24;;;;;;;4.63;4.20;;;;;;;;;;6445160;22;20083;-62
2022/05/13 04:18:33;;;;;;;12.93;6.25;;;;;;;;;;6523142;22;20026;-62
2022/05/13 04:21:05;;;;;;;5.95;5.25;;;;;;;;;;6495430;22;20137;-70
2022/05/13 04:23:37;;;;;;;6.05;5.63;;;;;;;;;;6495185;22;19999;-62
2022/05/13 04:26:12;;;;;;;11.32;6.32;;;;;;;;;;6495632;22;20003;-63
2022/05/13 04:28:44;;;;;;;9.80;5.57;;;;;;;;;;6495710;22;20337;-63
2022/05/13 04:31:15;;;;;;;7.05;5.68;;;;;;;;;;6522022;22;19999;-63
2022/05/13 04:33:46;;;;;;;5.88;5.00;;;;;;;;;;6495002;22;20003;-63
2022/05/13 04:36:17;;;;;;;8.48;5.00;;;;;;;;;;6521765;22;20374;-63
2022/05/13 04:38:47;;;;;;;5.97;4.45;;;;;;;;;;6493540;22;20129;-64
2022/05/13 04:44:08;;;;;;;5.85;5.03;;;;;;;;;;6522558;22;20005;-64
2022/05/13 04:46:38;;;;;;;5.93;4.63;;;;;;;;;;6495105;22;20318;-63
2022/05/13 04:49:08;;;;;;;4.97;4.45;;;;;;;;;;6495402;22;20001;-63
2022/05/13 04:51:39;;;;;;;4.97;4.28;;;;;;;;;;6522760;22;19999;-63
2022/05/13 04:54:09;;;;;;;14.27;5.72;;;;;;;;;;6495089;22;20040;-63
2022/05/13 04:56:40;;;;;;;7.72;6.65;;;;;;;;;;6495294;22;20003;-62
2022/05/13 04:59:10;;;;;;;6.20;4.15;;;;;;;;;;6495067;22;20025;-62
2022/05/13 05:01:40;;;;;;;6.38;4.68;;;;;;;;;;6515805;22;20010;-63
2022/05/13 05:04:11;;;;;;;13.38;7.05;;;;;;;;;;6553162;22;20038;-65
2022/05/13 05:06:42;;;;;;;6.68;6.10;;;;;;;;;;6553246;22;20328;-63
2022/05/13 05:09:12;;;;;;;8.10;5.82;;;;;;;;;;6553588;22;20005;-63
2022/05/13 05:11:42;;;;;;;8.38;4.53;;;;;;;;;;6553604;22;20079;-63
2022/05/13 05:14:13;;;;;;;15.65;5.65;;;;;;;;;;6552658;22;20002;-63
2022/05/13 05:16:43;;;;;;;5.18;4.72;;;;;;;;;;6553520;22;19998;-65
2022/05/13 05:19:13;;;;;;;10.98;4.65;;;;;;;;;;6553219;22;19998;-64
2022/05/13 05:21:44;;;;;;;9.88;6.55;;;;;;;;;;6554404;22;19998;-64
2022/05/13 05:24:15;;;;;;;6.53;4.63;;;;;;;;;;6551131;22;20428;-63
2022/05/13 05:26:45;;;;;;;12.00;4.72;;;;;;;;;;6552198;22;19995;-64
2022/05/13 05:29:16;;;;;;;9.60;4.70;;;;;;;;;;6553065;22;19998;-64
2022/05/13 05:31:46;;;;;;;5.93;5.07;;;;;;;;;;6553629;22;19995;-62
2022/05/13 05:34:19;;;;;;;7.35;4.28;;;;;;;;;;6552984;22;20383;-64
2022/05/13 05:36:49;;;;;;;5.60;3.53;;;;;;;;;;6553229;22;19999;-64
2022/05/13 05:39:20;;;;;;;8.10;4.90;;;;;;;;;;6553615;22;19995;-63
2022/05/13 05:41:50;;;;;;;7.55;4.35;;;;;;;;;;6553209;22;19999;-63
2022/05/13 05:44:21;;;;;;;7.18;4.75;;;;;;;;;;6552043;22;20010;-61
2022/05/13 05:46:54;;;;;;;4.85;4.10;;;;;;;;;;6553420;22;20099;-62
2022/05/13 05:49:24;;;;;;;20.10;5.93;;;;;;;;;;6553208;22;19995;-63
2022/05/13 05:51:55;;;;;;;11.90;4.68;;;;;;;;;;6553117;22;20426;-63
2022/05/13 05:57:15;;;;;;;10.13;5.38;;;;;;;;;;6551749;22;20502;-61
2022/05/13 05:59:46;;;;;;;8.93;5.88;;;;;;;;;;6553977;22;19994;-63
2022/05/13 06:02:16;;;;;;;7.10;4.57;;;;;;;;;;6552210;22;20017;-65
2022/05/13 06:04:47;;;;;;;8.18;5.95;;;;;;;;;;6551219;22;20006;-63
2022/05/13 06:07:17;;;;;;;13.48;6.22;;;;;;;;;;6554237;22;19991;-64
2022/05/13 06:09:47;;;;;;;6.50;5.28;;;;;;;;;;6552746;22;20007;-63
2022/05/13 06:12:18;;;;;;;11.02;5.57;;;;;;;;;;6552515;22;20003;-65
2022/05/13 06:14:49;;;;;;;9.52;6.90;;;;;;;;;;6552059;22;20003;-62
2022/05/13 06:17:19;;;;;;;13.27;5.97;;;;;;;;;;6552134;22;20387;-63
2022/05/13 06:19:49;;;;;;;20.60;7.03;;;;;;;;;;6554844;22;20044;-61
2022/05/13 06:22:21;;;;;;;9.23;5.68;;;;;;;;;;6554594;22;19995;-60
2022/05/13 06:24:51;;;;;;;17.02;6.72;;;;;;;;;;6554467;22;20345;-61
2022/05/13 06:27:22;;;;;;;10.48;7.15;;;;;;;;;;6552105;22;20002;-60
2022/05/13 06:29:53;;;;;;;8.77;4.60;;;;;;;;;;6555900;22;20375;-58
2022/05/13 06:32:23;;;;;;;9.85;6.38;;;;;;;;;;6555183;22;20006;-58
2022/05/13 06:34:53;;;;;;;8.95;5.90;;;;;;;;;;6554874;22;20060;-58
2022/05/13 06:37:24;;;;;;;6.03;5.43;;;;;;;;;;6557172;22;20073;-62
2022/05/13 06:39:54;;;;;;;10.68;5.72;;;;;;;;;;6555389;22;20064;-60
2022/05/13 06:42:24;;;;;;;14.07;6.43;;;;;;;;;;6555518;22;19998;-60
2022/05/13 06:44:55;;;;;;;9.27;6.13;;;;;;;;;;6554691;22;19995;-60
2022/05/13 06:47:25;;;;;;;7.43;5.82;;;;;;;;;;6555133;22;20002;-59
2022/05/13 06:49:55;;;;;;;12.18;7.05;;;;;;;;;;6555195;22;20003;-57
2022/05/13 06:52:26;;;;;;;6.53;5.93;;;;;;;;;;6555154;22;20003;-61
2022/05/13 06:54:56;;;;;;;17.00;6.50;;;;;;;;;;6554513;22;19999;-55
2022/05/13 06:57:26;;;;;;;7.70;6.47;;;;;;;;;;6555119;22;20048;-57
2022/05/13 06:59:57;;;;;;;8.15;7.45;;;;;;;;;;6554912;22;20421;-58
2022/05/13 07:02:27;;;;;;;14.30;7.15;;;;;;;;;;6555119;22;20010;-61
2022/05/13 07:04:57;;;;;;;8.27;7.38;;;;;;;;;;6553146;22;20026;-62
2022/05/13 07:07:28;;;;;;;8.23;5.43;;;;;;;;;;6552783;22;19998;-61
2022/05/13 07:09:58;;;;;;;13.60;6.90;;;;;;;;;;6554572;22;20032;-60
2022/05/13 07:12:29;;;;;;;11.18;6.85;;;;;;;;;;6554804;22;20092;-61
2022/05/13 07:14:59;;;;;;;8.40;7.60;;;;;;;;;;6553907;22;19998;-58
2022/05/13 07:17:30;;;;;;;10.65;5.80;;;;;;;;;;6554524;22;20074;-57
2022/05/13 07:20:00;;;;;;;25.50;6.53;;;;;;;;;;6554360;22;19998;-59
2022/05/13 07:22:30;;;;;;;14.57;5.95;;;;;;;;;;6554697;22;20078;-59
2022/05/13 07:25:01;;;;;;;14.05;6.93;;;;;;;;;;6554108;22;20463;-60
2022/05/13 07:27:31;;;;;;;12.15;7.93;;;;;;;;;;6554445;22;20393;-60
2022/05/13 07:30:03;;;;;;;31.25;7.38;;;;;;;;;;6554193;22;20010;-59
2022/05/13 07:32:33;;;;;;;6.85;6.25;;;;;;;;;;6555796;22;20317;-59
2022/05/13 07:35:04;;;;;;;17.25;7.82;;;;;;;;;;6554271;22;20073;-57
2022/05/13 07:37:35;;;;;;;8.07;7.25;;;;;;;;;;6554602;22;19998;-57
2022/05/13 07:42:54;;;;;;;8.60;5.47;;;;;;;;;;6555992;22;20081;-59
2022/05/13 07:45:24;;;;;;;13.32;5.65;;;;;;;;;;6553955;22;20445;-59
2022/05/13 07:47:55;;;;;;;7.63;6.72;;;;;;;;;;6554581;22;19999;-59
2022/05/13 07:50:25;;;;;;;5.97;3.78;;;;;;;;;;6554147;22;20010;-58
2022/05/13 07:52:55;;;;;;;10.40;6.25;;;;;;;;;;6554687;22;20022;-58
2022/05/13 07:55:26;;;;;;;8.00;6.15;;;;;;;;;;6553813;22;20025;-56
2022/05/13 07:57:56;;;;;;;6.95;5.68;;;;;;;;;;6554618;22;20567;-58
2022/05/13 08:00:32;;;;;;;6.47;5.35;;;;;;;;;;6552037;22;20002;-57
2022/05/13 08:03:04;;;;;;;6.03;5.53;;;;;;;;;;6532780;22;20018;-63
2022/05/13 08:11:23;;;;;;;5.65;4.60;;;;;;;;;;6535839;22;20014;-79
2022/05/13 08:13:54;;;;;;;4.30;3.88;;;;;;;;;;6526461;22;19995;-80
2022/05/13 08:16:26;;;;;;;5.97;5.32;;;;;;;;;;6499429;22;20003;-80
2022/05/13 08:18:57;;;;;;;7.93;3.92;;;;;;;;;;6527016;22;20423;-79
2022/05/13 08:21:28;;;;;;;7.72;3.50;;;;;;;;;;6525934;22;20086;-80
2022/05/13 08:23:58;;;;;;;4.82;3.80;;;;;;;;;;6527516;22;19991;-80
2022/05/13 08:26:28;;;;;;;17.23;5.97;;;;;;;;;;6523910;22;20106;-63
2022/05/13 08:28:59;;;;;;;6.05;4.45;;;;;;;;;;6497409;22;20221;-63
2022/05/13 08:31:29;;;;;;;4.95;4.60;;;;;;;;;;6497214;22;20047;-63
2022/05/13 08:37:07;;;;;;;3.70;3.40;;;;;;;;;;6525534;22;20341;-63
2022/05/13 08:39:37;;;;;;;8.55;2.60;;;;;;;;;;6497239;22;19999;-63
2022/05/13 08:42:36;;;;;;;5.18;4.68;;;;;;;;;;6497116;22;20003;-63
2022/05/13 08:47:49;;;;;;;7.57;3.85;;;;;;;;;;6522700;22;20258;-61
2022/05/13 08:50:22;;;;;;;15.18;4.53;;;;;;;;;;6521107;22;20000;-62
2022/05/13 08:53:08;;;;;;;7.30;3.03;;;;;;;;;;6520594;22;20365;-62
2022/05/13 08:55:39;;;;;;;4.30;3.00;;;;;;;;;;6520896;22;20007;-63
2022/05/13 08:58:11;;;;;;;7.65;4.20;;;;;;;;;;6522590;22;20075;-62
2022/05/13 09:00:44;;;;;;;13.85;4.22;;;;;;;;;;6520892;22;20019;-62
2022/05/13 09:03:34;;;;;;;6.78;4.78;;;;;;;;;;6520471;22;20004;-62
2022/05/13 09:06:04;;;;;;;3.92;2.88;;;;;;;;;;6521052;22;20015;-61
2022/05/13 09:08:35;;;;;;;6.38;2.88;;;;;;;;;;6521100;22;20006;-62
2022/05/13 09:11:05;;;;;;;9.95;4.13;;;;;;;;;;6521120;22;20056;-60
2022/05/13 09:13:47;;;;;;;3.20;3.00;;;;;;;;;;6520627;22;20318;-59
2022/05/13 09:16:25;;;;;;;4.82;3.08;;;;;;;;;;6520845;22;20006;-61
2022/05/13 09:18:58;;;;;;;11.65;3.50;;;;;;;;;;6520657;22;20033;-62
2022/05/13 09:21:30;;;;;;;6.28;2.78;;;;;;;;;;6495977;22;20334;-61
2022/05/13 09:24:00;;;;;;;3.67;3.38;;;;;;;;;;6520605;22;19997;-61
2022/05/13 09:26:31;;;;;;;11.27;3.42;;;;;;;;;;6520852;22;19999;-62
2022/05/13 09:29:05;;;;;;;2.92;1.80;;;;;;;;;;6523742;22;20079;-62
2022/05/13 09:31:40;;;;;;;4.47;2.67;;;;;;;;;;6526608;22;20390;-59
2022/05/13 09:34:17;;;;;;;1.90;1.77;;;;;;;;;;6524823;22;20056;-59
2022/05/13 09:36:48;;;;;;;4.70;3.17;;;;;;;;;;6525966;22;20345;-61
2022/05/13 09:39:21;;;;;;;2.70;2.47;;;;;;;;;;6526009;22;20369;-62
2022/05/13 09:41:52;;;;;;;2.72;2.47;;;;;;;;;;6524297;22;19999;-61
2022/05/13 09:44:23;;;;;;;3.67;3.45;;;;;;;;;;6522142;22;20006;-60
2022/05/13 09:47:08;;;;;;;5.63;2.78;;;;;;;;;;6522797;22;20061;-59
2022/05/13 09:49:40;;;;;;;5.25;2.10;;;;;;;;;;6522483;22;20368;-59
2022/05/13 09:52:12;;;;;;;3.92;2.08;;;;;;;;;;6524853;22;20329;-60
2022/05/13 09:54:47;;;;;;;1.90;1.80;;;;;;;;;;6524432;22;20033;-61
2022/05/13 09:57:20;;;;;;;4.82;3.20;;;;;;;;;;6530068;22;20019;-61
2022/05/13 09:59:55;;;;;;;2.80;2.42;;;;;;;;;;6528978;22;20010;-60
2022/05/13 10:02:32;;;;;;;8.00;3.30;;;;;;;;;;6529499;22;20144;-61
2022/05/13 10:05:11;;;;;;;4.72;2.30;;;;;;;;;;6556541;22;20297;-61
2022/05/13 10:07:53;;;;;;;6.15;2.90;;;;;;;;;;6529302;22;19994;-58
2022/05/13 10:16:02;;;;;;;2.08;1.98;;;;;;;;;;6556401;22;20013;-61
2022/05/13 10:18:34;;;;;;;2.42;2.33;;;;;;;;;;6528900;22;20336;-60
2022/05/13 10:21:06;;;;;;;2.95;2.70;;;;;;;;;;6555859;22;20002;-61
2022/05/13 10:23:40;;;;;;;4.30;1.85;;;;;;;;;;6528133;22;20023;-62
2022/05/13 10:26:12;;;;;;;5.63;3.00;;;;;;;;;;6528381;22;19994;-58
2022/05/13 10:29:01;;;;;;;2.72;2.53;;;;;;;;;;6528482;22;20329;-60
2022/05/13 10:31:34;;;;;;;6.55;4.22;;;;;;;;;;6528681;22;20006;-60
2022/05/13 10:34:11;;;;;;;6.60;3.65;;;;;;;;;;6527768;22;20002;-59
2022/05/13 10:36:47;;;;;;;3.45;3.15;;;;;;;;;;6529186;22;19998;-59
2022/05/13 10:39:23;;;;;;;3.90;2.13;;;;;;;;;;6556145;22;20014;-62
2022/05/13 10:41:58;;;;;;;3.90;2.50;;;;;;;;;;6528199;22;19995;-65
2022/05/13 10:44:38;;;;;;;3.25;3.05;;;;;;;;;;6527714;22;20048;-61
2022/05/13 10:47:08;;;;;;;;;;;;;;;;;;6557006;22;19998;-62
2022/05/13 10:49:39;;;;;;;7.40;3.20;;;;;;;;;;6528377;22;19949;-64
2022/05/13 10:52:21;;;;;;;5.80;3.22;;;;;;;;;;6556299;22;20010;-61
2022/05/13 10:55:03;;;;;;;3.72;2.80;;;;;;;;;;6528058;22;19999;-58
2022/05/13 10:57:39;;;;;;;12.63;4.28;;;;;;;;;;6536768;22;20336;-60
2022/05/13 11:00:12;;;;;;;4.45;2.17;;;;;;;;;;6554385;22;20010;-61
2022/05/13 11:03:01;;;;;;;3.28;2.88;;;;;;;;;;6554344;22;20090;-60
2022/05/13 11:05:34;;;;;;;4.45;2.75;;;;;;;;;;6553326;22;20435;-62
2022/05/13 11:08:20;;;;;;;3.25;2.85;;;;;;;;;;6554321;22;20003;-58
2022/05/13 11:11:19;;;;;;;3.67;2.80;;;;;;;;;;6553646;22;20005;-60
2022/05/13 11:13:52;;;;;;;3.22;2.97;;;;;;;;;;6553107;22;20003;-60
2022/05/13 11:16:42;;;;;;;6.07;3.70;;;;;;;;;;6554026;22;20003;-61
2022/05/13 11:19:25;;;;;;;3.90;3.58;;;;;;;;;;6552631;22;20086;-62
2022/05/13 11:22:06;;;;;;;2.60;2.40;;;;;;;;;;6552437;22;20029;-61
2022/05/13 11:27:46;;;;;;;4.13;2.28;;;;;;;;;;6553691;22;20178;-61
2022/05/13 11:30:18;;;;;;;5.25;3.72;;;;;;;;;;6552974;22;20007;-62
2022/05/13 11:33:01;;;;;;;4.50;4.03;;;;;;;;;;6554145;22;19998;-63
2022/05/13 11:35:43;;;;;;;4.85;3.05;;;;;;;;;;6552289;22;20063;-62
2022/05/13 11:38:30;;;;;;;7.95;3.58;;;;;;;;;;6552637;22;20003;-61
2022/05/13 11:41:08;;;;;;;3.03;2.28;;;;;;;;;;6552788;22;20002;-61
2022/05/13 11:43:47;;;;;;;7.50;4.20;;;;;;;;;;6552624;22;20019;-61
2022/05/13 11:46:33;;;;;;;9.60;3.15;;;;;;;;;;6553395;22;20052;-63
2022/05/13 11:49:12;;;;;;;3.92;3.15;;;;;;;;;;6552809;22;19995;-61
2022/05/13 11:51:42;;;;;;;;;;;;;;;;;;6553004;22;20435;-61
2022/05/13 11:54:18;;;;;;;5.57;3.73;;;;;;;;;;6552090;22;19955;-60
2022/05/13 11:56:49;;;;;;;5.60;5.13;;;;;;;;;;6498393;22;20441;-82
2022/05/13 11:59:26;;;;;;;7.90;2.65;;;;;;;;;;6522449;22;20011;-62
2022/05/13 12:01:58;;;;;;;5.10;3.40;;;;;;;;;;6494354;22;20039;-63
2022/05/13 12:04:29;;;;;;;5.00;3.58;;;;;;;;;;6494872;22;20086;-60
2022/05/13 12:07:15;;;;;;;2.50;2.30;;;;;;;;;;6495583;22;20082;-58
2022/05/13 12:09:47;;;;;;;2.85;2.75;;;;;;;;;;6523044;22;19991;-59
2022/05/13 12:12:42;;;;;;;3.50;3.28;;;;;;;;;;6495193;22;20019;-60
2022/05/13 12:15:12;;;;;;;3.75;3.45;;;;;;;;;;6495305;22;20002;-59
2022/05/13 12:17:45;;;;;;;3.15;3.00;;;;;;;;;;6495000;22;20441;-58
2022/05/13 12:20:32;;;;;;;6.85;3.38;;;;;;;;;;6494860;22;20380;-60
2022/05/13 12:23:14;;;;;;;6.45;3.60;;;;;;;;;;6522594;22;20047;-61
2022/05/13 12:25:55;;;;;;;3.38;2.17;;;;;;;;;;6522821;22;20027;-60
2022/05/13 12:28:38;;;;;;;2.17;2.08;;;;;;;;;;6494537;22;20543;-62
2022/05/13 12:31:29;;;;;;;7.40;3.22;;;;;;;;;;6495282;22;20006;-59
2022/05/13 12:39:52;;;;;;;2.95;2.75;;;;;;;;;;6522812;22;20151;-61
2022/05/13 12:42:37;;;;;;;10.45;3.28;;;;;;;;;;6494499;22;20034;-59
2022/05/13 12:45:13;;;;;;;2.95;2.72;;;;;;;;;;6494868;22;19999;-61
2022/05/13 12:48:10;;;;;;;3.88;2.53;;;;;;;;;;6494673;22;20056;-61
2022/05/13 12:50:50;;;;;;;3.25;3.05;;;;;;;;;;6488999;22;20026;-59
2022/05/13 12:53:30;;;;;;;3.22;2.60;;;;;;;;;;6523731;22;20010;-63
2022/05/13 12:56:12;;;;;;;15.15;4.53;;;;;;;;;;6494974;22;20048;-58
2022/05/13 12:58:44;;;;;;;9.85;4.03;;;;;;;;;;6522311;22;20015;-61
2022/05/13 13:01:15;;;;;;;3.13;2.38;;;;;;;;;;6494895;22;20014;-59
2022/05/13 13:03:47;;;;;;;6.28;3.13;;;;;;;;;;6494450;22;19995;-58
2022/05/13 13:06:20;;;;;;;16.77;3.80;;;;;;;;;;6495497;22;20003;-60
2022/05/13 13:08:52;;;;;;;14.20;4.40;;;;;;;;;;6495824;22;19999;-61
2022/05/13 13:11:25;;;;;;;1.92;1.83;;;;;;;;;;6496136;22;20418;-61
2022/05/13 13:14:02;;;;;;;9.65;2.63;;;;;;;;;;6495143;22;20006;-59
2022/05/13 13:16:41;;;;;;;4.22;2.92;;;;;;;;;;6496283;22;20010;-59
2022/05/13 13:19:13;;;;;;;6.07;3.08;;;;;;;;;;6495814;22;20025;-61
2022/05/13 13:21:45;;;;;;;3.88;2.50;;;;;;;;;;6523615;22;19995;-57
2022/05/13 13:24:17;;;;;;;6.13;3.03;;;;;;;;;;6495376;22;20421;-60
2022/05/13 13:26:48;;;;;;;7.57;3.05;;;;;;;;;;6496028;22;19991;-62
2022/05/13 13:29:25;;;;;;;8.52;3.05;;;;;;;;;;6496866;22;20000;-62
2022/05/13 13:32:04;;;;;;;4.95;3.40;;;;;;;;;;6498633;22;20100;-60
2022/05/13 13:34:34;;;;;;;2.05;1.95;;;;;;;;;;6497504;22;20186;-59
2022/05/13 13:37:12;;;;;;;6.68;2.40;;;;;;;;;;6496185;22;20449;-58
2022/05/13 13:39:43;;;;;;;6.97;2.63;;;;;;;;;;6497409;22;20003;-58
2022/05/13 13:42:15;;;;;;;2.58;2.38;;;;;;;;;;6498482;22;20051;-60
2022/05/13 13:44:46;;;;;;;10.98;4.15;;;;;;;;;;6500626;22;19999;-57
2022/05/13 13:47:28;;;;;;;2.63;2.42;;;;;;;;;;6499144;22;19999;-59
2022/05/13 13:49:59;;;;;;;6.10;2.88;;;;;;;;;;6526077;22;20004;-59
2022/05/13 13:52:32;;;;;;;5.25;2.90;;;;;;;;;;6498115;22;20108;-59
2022/05/13 13:55:11;;;;;;;4.10;3.72;;;;;;;;;;6497262;22;20022;-61
2022/05/13 13:57:44;;;;;;;3.67;2.43;;;;;;;;;;6498194;22;19999;-58
2022/05/13 14:00:29;;;;;;;10.07;2.83;;;;;;;;;;6525546;22;20304;-58
2022/05/13 14:03:02;;;;;;;2.95;2.85;;;;;;;;;;6525590;22;19995;-62
2022/05/13 14:05:34;;;;;;;6.72;2.70;;;;;;;;;;6503339;22;20011;-60
2022/05/13 14:08:05;;;;;;;2.58;2.28;;;;;;;;;;6526626;22;19999;-61
2022/05/13 14:10:40;;;;;;;3.33;3.00;;;;;;;;;;6527991;22;20433;-60
2022/05/13 14:13:11;;;;;;;1.92;1.83;;;;;;;;;;6525894;22;20003;-60
2022/05/13 14:15:43;;;;;;;1.88;1.65;;;;;;;;;;6525598;22;20112;-60
2022/05/13 14:18:15;;;;;;;1.48;1.42;;;;;;;;;;6526004;22;20340;-57
2022/05/13 14:20:52;;;;;;;4.88;2.60;;;;;;;;;;6525868;22;20345;-60
2022/05/13 14:23:29;;;;;;;3.00;1.60;;;;;;;;;;6525302;22;20006;-59
2022/05/13 14:26:01;;;;;;;3.38;2.15;;;;;;;;;;6525545;22;20094;-60
2022/05/13 14:28:35;;;;;;;3.92;2.50;;;;;;;;;;6526252;22;19999;-60
2022/05/13 14:31:08;;;;;;;1.60;1.50;;;;;;;;;;6525172;22;20085;-60
2022/05/13 14:33:40;;;;;;;6.68;2.35;;;;;;;;;;6525114;22;20003;-60
2022/05/13 14:36:10;;;;;;;10.55;3.28;;;;;;;;;;6525134;22;19999;-64
2022/05/13 14:41:43;;;;;;;1.40;1.20;;;;;;;;;;6526239;22;20030;-61
2022/05/13 14:44:15;;;;;;;3.20;1.77;;;;;;;;;;6525201;22;20002;-60
2022/05/13 14:47:02;;;;;;;6.60;2.58;;;;;;;;;;6525369;22;19995;-60
2022/05/13 14:49:34;;;;;;;11.32;2.47;;;;;;;;;;6525403;22;20003;-60
2022/05/13 14:52:05;;;;;;;2.92;2.63;;;;;;;;;;6524900;22;20010;-59
2022/05/13 14:54:38;;;;;;;7.80;2.75;;;;;;;;;;6524117;22;20049;-58
2022/05/13 14:57:09;;;;;;;1.85;1.75;;;;;;;;;;6525273;22;20006;-60
2022/05/13 14:59:51;;;;;;;6.05;2.08;;;;;;;;;;6524635;22;20003;-59
2022/05/13 15:02:28;;;;;;;2.72;2.45;;;;;;;;;;6525250;22;20003;-60
2022/05/13 15:05:28;;;;;;;3.05;1.98;;;;;;;;;;6524262;22;20064;-59
2022/05/13 15:07:59;;;;;;;9.43;2.63;;;;;;;;;;6505601;22;20333;-60
2022/05/13 15:10:30;;;;;;;8.45;3.40;;;;;;;;;;6524566;22;19999;-59
2022/05/13 15:13:00;;;;;;;4.82;2.22;;;;;;;;;;6524939;22;20010;-60
2022/05/13 15:15:30;;;;;;;4.85;2.80;;;;;;;;;;6524418;22;19999;-58
2022/05/13 15:18:01;;;;;;;13.15;3.47;;;;;;;;;;6524948;22;20007;-59
2022/05/13 15:20:32;;;;;;;2.83;2.63;;;;;;;;;;6525862;22;20314;-60
2022/05/13 15:23:02;;;;;;;1.48;1.40;;;;;;;;;;6525425;22;20052;-59
2022/05/13 15:25:33;;;;;;;7.65;4.28;;;;;;;;;;6524729;22;20222;-59
2022/05/13 15:28:04;;;;;;;5.38;2.20;;;;;;;;;;6526898;22;19991;-58
2022/05/13 15:30:34;;;;;;;1.42;1.33;;;;;;;;;;6526105;22;20052;-59
2022/05/13 15:33:04;;;;;;;2.03;1.92;;;;;;;;;;6525078;22;19995;-60
2022/05/13 15:35:35;;;;;;;1.40;1.38;;;;;;;;;;6525550;22;20029;-59
2022/05/13 15:38:06;;;;;;;2.85;2.45;;;;;;;;;;6523407;22;20078;-60
2022/05/13 15:40:38;;;;;;;3.92;2.47;;;;;;;;;;6522681;22;20337;-60
2022/05/13 15:43:08;;;;;;;6.07;2.33;;;;;;;;;;6522698;22;20314;-60
2022/05/13 15:45:40;;;;;;;2.10;2.00;;;;;;;;;;6521364;22;20105;-59
2022/05/13 15:48:13;;;;;;;3.03;2.15;;;;;;;;;;6523741;22;20026;-60
2022/05/13 15:53:32;;;;;;;8.30;2.33;;;;;;;;;;6525307;22;20017;-60
2022/05/13 15:56:05;;;;;;;1.88;1.70;;;;;;;;;;6525291;22;20400;-61
2022/05/13 15:58:37;;;;;;;2.35;2.22;;;;;;;;;;6523862;22;20321;-66
2022/05/13 16:01:08;;;;;;;1.70;1.63;;;;;;;;;;6523773;22;20005;-61
2022/05/13 16:03:39;;;;;;;5.15;2.03;;;;;;;;;;6523581;22;19999;-60
2022/05/13 16:06:10;;;;;;;4.82;2.72;;;;;;;;;;6523443;22;20082;-61